»·PEaware :: SWA788 KSFO-KSAN

SWA788 :: KSFO-KSAN

FLIGHT INFORMATION

Flight Status: Arrived
Operator:
Southwest Airlines
More flights by this operator :: More flights under this callsign
Pilot: Ruben R. (12247)
Aircraft: BOEING 737-200
(B732)
More flights by this aircraft type
Origin: KSFO San Francisco Intl
United States
Destination: KSAN San Diego Intl-Lindbergh
United States
More flights between these airports :: More routes between these airports
Route: +OFFSH1 MCKEY LAX COMIX1
File this flight plan on PilotEdge
Remarks: TWITCH.TV / THEMACH3LOUNGE
Altitude:
(Current/Filed)
33,000ft
Speed:
(Current/Filed)
450kts
Departed: 30-Dec-17 05:23 PM
Arrived: 30-Dec-17 06:41 PM
Distance/Time
Traveled:
388nm/1:18
Distance/Time
To Go:
Arrived

Flight Plot

Page will automatically refresh every two minutes.

Flight plan parsing failed; only flown route is shown


Map Options




Map Legend


Flown Route
Filed Route
Departure Airport
Arrival Airport
Navaid (VOR, NDB)
Fix

Horizontal Profiles

Position Reports

Time Latitude Longitude Heading Altitude Ground
Speed
30-Dec-17 17:03 37.617705 -122.382837 135 21ft 0kts
30-Dec-17 17:04 37.617705 -122.382837 135 21ft 0kts
30-Dec-17 17:05 37.617705 -122.382837 135 21ft 0kts
30-Dec-17 17:06 37.617705 -122.382837 135 21ft 0kts
30-Dec-17 17:07 37.617705 -122.382837 135 21ft 0kts
30-Dec-17 17:08 37.617705 -122.382837 135 21ft 0kts
30-Dec-17 17:09 37.617705 -122.382837 135 21ft 0kts
30-Dec-17 17:10 37.617705 -122.382837 135 21ft 0kts
30-Dec-17 17:11 37.617705 -122.382837 135 21ft 0kts
30-Dec-17 17:12 37.617705 -122.382837 135 21ft 0kts
30-Dec-17 17:13 37.617705 -122.382837 135 21ft 0kts
30-Dec-17 17:14 37.617705 -122.382837 135 21ft 0kts
30-Dec-17 17:15 37.617705 -122.382837 135 21ft 0kts
30-Dec-17 17:16 37.617750 -122.382895 134 21ft 2kts
30-Dec-17 17:17 37.618013 -122.383407 83 21ft 2kts
30-Dec-17 17:18 37.617950 -122.383607 60 21ft 0kts
30-Dec-17 17:19 37.617950 -122.383607 60 21ft 0kts
30-Dec-17 17:20 37.617950 -122.383607 60 21ft 0kts
30-Dec-17 17:21 37.617950 -122.383607 60 21ft 0kts
30-Dec-17 17:22 37.618696 -122.382748 34 21ft 14kts
30-Dec-17 17:23 37.618218 -122.379681 159 21ft 13kts
30-Dec-17 17:24 37.614605 -122.380923 191 21ft 15kts
30-Dec-17 17:25 37.610874 -122.382317 166 21ft 9kts
30-Dec-17 17:26 37.610812 -122.382290 157 21ft 0kts
30-Dec-17 17:27 37.610812 -122.382290 157 21ft 0kts
30-Dec-17 17:28 37.610651 -122.381102 28 21ft 10kts
30-Dec-17 17:29 37.631364 -122.367654 26 374ft 160kts
30-Dec-17 17:30 37.678557 -122.361081 4 2724ft 185kts
30-Dec-17 17:31 37.694843 -122.405925 239 5231ft 188kts
30-Dec-17 17:32 37.663534 -122.473380 239 6304ft 271kts
30-Dec-17 17:33 37.624241 -122.554773 238 8933ft 279kts
30-Dec-17 17:34 37.582923 -122.639051 238 11457ft 288kts
30-Dec-17 17:35 37.537338 -122.722254 213 13664ft 297kts
30-Dec-17 17:36 37.456851 -122.710021 161 14997ft 332kts
30-Dec-17 17:37 37.360467 -122.677392 167 14969ft 374kts
30-Dec-17 17:38 37.259888 -122.649962 169 16836ft 374kts
30-Dec-17 17:39 37.157175 -122.622895 169 18385ft 383kts
30-Dec-17 17:40 37.052006 -122.595356 169 19780ft 391kts
30-Dec-17 17:41 36.945187 -122.567474 169 20990ft 398kts
30-Dec-17 17:42 36.855016 -122.544008 169 21904ft 404kts
30-Dec-17 17:43 36.726408 -122.510637 169 23034ft 411kts
30-Dec-17 17:44 36.632761 -122.486407 169 23763ft 415kts
30-Dec-17 17:45 36.500244 -122.452221 169 24666ft 421kts
30-Dec-17 17:46 36.411214 -122.406313 138 25207ft 432kts
30-Dec-17 17:47 36.331314 -122.298272 132 25802ft 438kts
30-Dec-17 17:48 36.239144 -122.164765 132 26449ft 443kts
30-Dec-17 17:49 36.172825 -122.068519 132 26910ft 446kts
30-Dec-17 17:50 36.092020 -121.951585 132 27405ft 450kts
30-Dec-17 17:51 36.010510 -121.834039 132 27855ft 454kts
30-Dec-17 17:52 35.929056 -121.716977 132 28258ft 457kts
30-Dec-17 17:53 35.849078 -121.602435 132 28624ft 459kts
30-Dec-17 17:54 35.765700 -121.483436 132 28940ft 463kts
30-Dec-17 17:55 35.681408 -121.363546 132 29248ft 465kts
30-Dec-17 17:56 35.602033 -121.251033 133 29503ft 467kts
30-Dec-17 17:57 35.531606 -121.151519 133 29696ft 469kts
30-Dec-17 17:58 35.452231 -121.027737 126 29916ft 472kts
30-Dec-17 17:59 35.382109 -120.904185 126 30110ft 473kts
30-Dec-17 18:00 35.308805 -120.774917 126 30332ft 474kts
30-Dec-17 18:01 35.235482 -120.646057 126 30510ft 476kts
30-Dec-17 18:02 35.160224 -120.514284 126 30677ft 477kts
30-Dec-17 18:03 35.087771 -120.387887 126 30828ft 478kts
30-Dec-17 18:04 35.029242 -120.286117 127 30943ft 479kts
30-Dec-17 18:05 34.975694 -120.193298 126 31123ft 478kts
30-Dec-17 18:06 34.921895 -120.100222 126 31191ft 479kts
30-Dec-17 18:07 34.863312 -119.999173 126 31282ft 479kts
30-Dec-17 18:08 34.789499 -119.872270 126 31496ft 482kts
30-Dec-17 18:09 34.714806 -119.744314 126 31837ft 484kts
30-Dec-17 18:10 34.637994 -119.613206 126 32116ft 485kts
30-Dec-17 18:11 34.563479 -119.486470 126 32834ft 468kts
30-Dec-17 18:12 34.491074 -119.363770 126 32848ft 468kts
30-Dec-17 18:13 34.429420 -119.259654 126 32862ft 471kts
30-Dec-17 18:14 34.387572 -119.189063 127 33008ft 473kts
30-Dec-17 18:15 34.322170 -119.079138 127 33101ft 478kts
30-Dec-17 18:16 34.269931 -118.991559 127 33101ft 476kts
30-Dec-17 18:17 34.204767 -118.882615 127 33102ft 474kts
30-Dec-17 18:18 34.141112 -118.776507 127 33097ft 474kts
30-Dec-17 18:19 34.074104 -118.665148 127 33077ft 475kts
30-Dec-17 18:20 34.006040 -118.552383 127 33091ft 474kts
30-Dec-17 18:21 33.946190 -118.453521 127 33103ft 474kts
30-Dec-17 18:22 33.868270 -118.348133 134 32551ft 467kts
30-Dec-17 18:23 33.793474 -118.251238 134 32291ft 445kts
30-Dec-17 18:24 33.724539 -118.160995 133 31062ft 449kts
30-Dec-17 18:25 33.644017 -118.055368 133 29686ft 441kts
30-Dec-17 18:26 33.563767 -117.950396 133 28698ft 424kts
30-Dec-17 18:27 33.489162 -117.861943 137 28687ft 381kts
30-Dec-17 18:28 33.418410 -117.778461 136 28687ft 342kts
30-Dec-17 18:29 33.354332 -117.700504 136 25930ft 395kts
30-Dec-17 18:30 33.277266 -117.606801 135 23801ft 393kts
30-Dec-17 18:31 33.194337 -117.531941 145 21807ft 383kts
30-Dec-17 18:32 33.109705 -117.460783 145 19343ft 365kts
30-Dec-17 18:33 33.030498 -117.394541 145 15411ft 350kts
30-Dec-17 18:34 32.955119 -117.331351 145 11708ft 334kts
30-Dec-17 18:35 32.892038 -117.278692 145 8714ft 319kts
30-Dec-17 18:36 32.832507 -117.229210 145 7096ft 275kts
30-Dec-17 18:37 32.803759 -117.165735 107 6442ft 258kts
30-Dec-17 18:38 32.787044 -117.098030 106 6204ft 260kts
30-Dec-17 18:39 32.769986 -117.027232 106 6213ft 264kts
30-Dec-17 18:40 32.746270 -116.957012 140 5664ft 235kts
30-Dec-17 18:41 32.694204 -116.962102 227 5303ft 194kts
30-Dec-17 18:42 32.690634 -117.020429 295 4254ft 157kts
30-Dec-17 18:43 32.703698 -117.067033 287 2197ft 152kts
30-Dec-17 18:44 32.713838 -117.108078 288 1313ft 141kts
30-Dec-17 18:45 32.723181 -117.146614 284 670ft 135kts
30-Dec-17 18:46 32.732153 -117.184070 286 23ft 125kts
30-Dec-17 18:47 32.735175 -117.197964 252 21ft 19kts

Navigation Log

Ident Type
Flight plan parsing failed, navigation log unavailable